< Typhoon 201901 2019 Season Typhoon 201903 >
Typhoon 201902 (WUTIP)
General InformationTrack Information on Google MapsDetailed Wind InformationForecast History on Google MapsAccess Analytics MapList of All Images || NewsDisaster Info.WeblogTrackbackTyphoon FrontTwiphoonTyphoon Now!Typhoon ImaginationJMA Disaster Info. XMLResourceGoogle EarthGE AnimationAtom FeedGeoJSON
Detalied Best Track (Time Zone = UTC)
Year Month Day Hour Lat. Long. Pressure (hPa) Wind (kt) Class Image Chart
2019 2 18 12 4.7 162.5 1006 0 2 Image Chart
2019 2 18 18 4.8 161.2 1004 0 2 Image Chart
2019 2 19 00 5.2 159.8 1006 0 2 Image Chart
2019 2 19 06 4.9 158.4 1004 0 2 Image Chart
2019 2 19 12 4.5 156.6 1004 0 2 Image Chart
2019 2 19 18 4.5 155.5 1000 35 3 Image Chart
2019 2 20 00 4.7 154.6 994 45 3 Image Chart
2019 2 20 06 4.7 153.8 992 50 4 Image Chart
2019 2 20 12 5.0 152.6 985 60 4 Image Chart
2019 2 20 18 5.7 151.6 980 65 5 Image Chart
2019 2 21 00 6.1 150.5 975 70 5 Image Chart
2019 2 21 06 6.4 149.6 960 80 5 Image Chart
2019 2 21 12 6.9 148.7 960 80 5 Image Chart
2019 2 21 18 7.5 147.9 960 80 5 Image Chart
2019 2 22 00 8.2 146.8 960 80 5 Image Chart
2019 2 22 06 9.2 146.2 960 80 5 Image Chart
2019 2 22 12 9.9 145.0 960 80 5 Image Chart
2019 2 22 18 10.1 144.0 960 80 5 Image Chart
2019 2 23 00 10.6 143.7 955 85 5 Image Chart
2019 2 23 06 11.4 143.3 940 95 5 Image Chart
2019 2 23 12 12.0 142.8 920 105 5 Image Chart
2019 2 23 18 12.4 142.4 920 105 5 Image Chart
2019 2 24 00 12.7 142.1 920 105 5 Image Chart
2019 2 24 06 12.9 141.7 940 95 5 Image Chart
2019 2 24 12 13.1 141.2 940 95 5 Image Chart
2019 2 24 18 13.1 140.7 940 95 5 Image Chart
2019 2 25 00 13.4 140.4 935 100 5 Image Chart
2019 2 25 06 13.8 140.2 935 100 5 Image Chart
2019 2 25 12 14.2 140.1 935 100 5 Image Chart
2019 2 25 18 14.6 139.9 935 100 5 Image Chart
2019 2 26 00 14.9 139.9 950 90 5 Image Chart
2019 2 26 06 15.2 139.9 940 95 5 Image Chart
2019 2 26 12 15.4 140.1 950 85 5 Image Chart
2019 2 26 18 15.7 140.1 955 80 5 Image Chart
2019 2 27 00 16.0 140.0 965 70 5 Image Chart
2019 2 27 06 16.4 139.8 970 65 5 Image Chart
2019 2 27 12 16.5 139.0 980 55 4 Image Chart
2019 2 27 18 16.7 137.7 990 50 4 Image Chart
2019 2 28 00 17.2 136.7 996 40 3 Image Chart
2019 2 28 06 17.6 135.6 1004 0 2 Image Chart
2019 2 28 12 18.2 135.0 1010 0 2 Image Chart
2019 2 28 18 18.6 134.6 1010 0 2 Image Chart
2019 3 1 00 19.1 134.4 1012 0 2 Image Chart
2019 3 1 06 19.4 134.2 1010 0 2 Image Chart
2019 3 1 12 19.7 134.0 1012 0 2 Image Chart
2019 3 1 18 19.6 134.0 1010 0 2 Image Chart
2019 3 2 00 19.4 133.9 1010 0 2 Image Chart
2019 3 2 06 18.9 133.1 1008 0 2 Image Chart
Japan Meteorological Agency Best Track Data | Correction Date : 2019-04-03
< Typhoon 201901 2019 Season Typhoon 201903 >

Help